sensor_id;sensor_type;location;lat;lon;timestamp;P1;durP1;ratioP1;P2;durP2;ratioP2
23310;SDS011;11828;51.508;18.118;2023-05-07T00:00:54;127.28;;;67.07;;
23310;SDS011;11828;51.508;18.118;2023-05-07T00:03:21;130.60;;;70.22;;
23310;SDS011;11828;51.508;18.118;2023-05-07T00:05:47;133.73;;;70.50;;
23310;SDS011;11828;51.508;18.118;2023-05-07T00:08:14;39.83;;;35.88;;
23310;SDS011;11828;51.508;18.118;2023-05-07T00:10:40;93.35;;;58.58;;
23310;SDS011;11828;51.508;18.118;2023-05-07T00:13:06;135.38;;;68.60;;
23310;SDS011;11828;51.508;18.118;2023-05-07T00:15:32;114.85;;;66.13;;
23310;SDS011;11828;51.508;18.118;2023-05-07T00:17:59;116.75;;;66.82;;
23310;SDS011;11828;51.508;18.118;2023-05-07T00:20:25;133.98;;;68.35;;
23310;SDS011;11828;51.508;18.118;2023-05-07T00:22:51;136.02;;;70.53;;
23310;SDS011;11828;51.508;18.118;2023-05-07T00:25:18;138.85;;;70.80;;
23310;SDS011;11828;51.508;18.118;2023-05-07T00:27:45;118.32;;;66.63;;
23310;SDS011;11828;51.508;18.118;2023-05-07T00:30:11;113.78;;;64.05;;
23310;SDS011;11828;51.508;18.118;2023-05-07T00:32:38;129.63;;;68.65;;
23310;SDS011;11828;51.508;18.118;2023-05-07T00:35:04;137.48;;;73.07;;
23310;SDS011;11828;51.508;18.118;2023-05-07T00:37:31;128.45;;;68.22;;
23310;SDS011;11828;51.508;18.118;2023-05-07T00:39:57;130.48;;;69.63;;
23310;SDS011;11828;51.508;18.118;2023-05-07T00:42:24;23.30;;;20.75;;
23310;SDS011;11828;51.508;18.118;2023-05-07T00:44:50;72.18;;;53.33;;
23310;SDS011;11828;51.508;18.118;2023-05-07T00:47:16;131.27;;;69.15;;
23310;SDS011;11828;51.508;18.118;2023-05-07T00:49:43;133.73;;;68.22;;
23310;SDS011;11828;51.508;18.118;2023-05-07T00:52:11;134.45;;;70.07;;
23310;SDS011;11828;51.508;18.118;2023-05-07T00:54:41;108.43;;;63.63;;
23310;SDS011;11828;51.508;18.118;2023-05-07T00:57:08;18.35;;;15.27;;
23310;SDS011;11828;51.508;18.118;2023-05-07T00:59:36;67.68;;;44.40;;
23310;SDS011;11828;51.508;18.118;2023-05-07T01:02:03;144.65;;;71.55;;
23310;SDS011;11828;51.508;18.118;2023-05-07T01:04:29;111.05;;;64.07;;
23310;SDS011;11828;51.508;18.118;2023-05-07T01:06:56;148.60;;;71.25;;
23310;SDS011;11828;51.508;18.118;2023-05-07T01:09:26;102.40;;;62.65;;
23310;SDS011;11828;51.508;18.118;2023-05-07T01:11:54;135.80;;;71.43;;
23310;SDS011;11828;51.508;18.118;2023-05-07T01:14:22;68.10;;;51.22;;
23310;SDS011;11828;51.508;18.118;2023-05-07T01:16:49;150.85;;;72.13;;
23310;SDS011;11828;51.508;18.118;2023-05-07T01:19:18;146.82;;;72.70;;
23310;SDS011;11828;51.508;18.118;2023-05-07T01:21:47;124.18;;;67.18;;
23310;SDS011;11828;51.508;18.118;2023-05-07T01:24:14;123.22;;;66.63;;
23310;SDS011;11828;51.508;18.118;2023-05-07T01:26:41;124.30;;;67.30;;
23310;SDS011;11828;51.508;18.118;2023-05-07T01:29:09;133.63;;;70.82;;
23310;SDS011;11828;51.508;18.118;2023-05-07T01:31:36;109.68;;;65.65;;
23310;SDS011;11828;51.508;18.118;2023-05-07T01:34:04;136.50;;;69.13;;
23310;SDS011;11828;51.508;18.118;2023-05-07T01:36:32;128.50;;;69.20;;
23310;SDS011;11828;51.508;18.118;2023-05-07T01:39:00;138.27;;;70.10;;
23310;SDS011;11828;51.508;18.118;2023-05-07T01:41:27;94.15;;;61.63;;
23310;SDS011;11828;51.508;18.118;2023-05-07T01:43:54;127.50;;;68.20;;
23310;SDS011;11828;51.508;18.118;2023-05-07T01:46:21;155.68;;;73.15;;
23310;SDS011;11828;51.508;18.118;2023-05-07T01:48:48;139.43;;;70.32;;
23310;SDS011;11828;51.508;18.118;2023-05-07T01:51:15;150.38;;;72.82;;
23310;SDS011;11828;51.508;18.118;2023-05-07T01:53:41;134.07;;;69.32;;
23310;SDS011;11828;51.508;18.118;2023-05-07T01:56:09;145.25;;;71.70;;
23310;SDS011;11828;51.508;18.118;2023-05-07T01:58:35;41.42;;;35.92;;
23310;SDS011;11828;51.508;18.118;2023-05-07T02:01:01;136.43;;;71.82;;
23310;SDS011;11828;51.508;18.118;2023-05-07T02:03:27;148.10;;;73.22;;
23310;SDS011;11828;51.508;18.118;2023-05-07T02:05:54;155.10;;;74.03;;
23310;SDS011;11828;51.508;18.118;2023-05-07T02:08:20;152.15;;;72.10;;
23310;SDS011;11828;51.508;18.118;2023-05-07T02:10:46;144.15;;;71.45;;
23310;SDS011;11828;51.508;18.118;2023-05-07T02:13:12;150.05;;;71.43;;
23310;SDS011;11828;51.508;18.118;2023-05-07T02:15:38;150.80;;;70.63;;
23310;SDS011;11828;51.508;18.118;2023-05-07T02:18:05;144.05;;;72.07;;
23310;SDS011;11828;51.508;18.118;2023-05-07T02:20:34;142.20;;;73.18;;
23310;SDS011;11828;51.508;18.118;2023-05-07T02:23:00;144.70;;;70.20;;
23310;SDS011;11828;51.508;18.118;2023-05-07T02:25:27;141.50;;;73.00;;
23310;SDS011;11828;51.508;18.118;2023-05-07T02:27:54;141.13;;;69.18;;
23310;SDS011;11828;51.508;18.118;2023-05-07T02:30:20;149.70;;;72.72;;
23310;SDS011;11828;51.508;18.118;2023-05-07T02:32:47;141.13;;;71.15;;
23310;SDS011;11828;51.508;18.118;2023-05-07T02:35:13;143.43;;;72.32;;
23310;SDS011;11828;51.508;18.118;2023-05-07T02:37:39;143.38;;;69.78;;
23310;SDS011;11828;51.508;18.118;2023-05-07T02:40:05;143.18;;;72.40;;
23310;SDS011;11828;51.508;18.118;2023-05-07T02:42:32;138.00;;;71.45;;
23310;SDS011;11828;51.508;18.118;2023-05-07T02:44:58;146.63;;;71.28;;
23310;SDS011;11828;51.508;18.118;2023-05-07T02:47:25;156.82;;;73.82;;
23310;SDS011;11828;51.508;18.118;2023-05-07T02:49:53;144.05;;;71.35;;
23310;SDS011;11828;51.508;18.118;2023-05-07T02:52:20;147.23;;;72.00;;
23310;SDS011;11828;51.508;18.118;2023-05-07T02:54:47;144.30;;;72.90;;
23310;SDS011;11828;51.508;18.118;2023-05-07T02:57:13;140.85;;;70.28;;
23310;SDS011;11828;51.508;18.118;2023-05-07T02:59:40;152.90;;;72.22;;
23310;SDS011;11828;51.508;18.118;2023-05-07T03:02:07;138.18;;;70.85;;
23310;SDS011;11828;51.508;18.118;2023-05-07T03:04:33;146.65;;;71.55;;
23310;SDS011;11828;51.508;18.118;2023-05-07T03:06:59;138.30;;;70.20;;
23310;SDS011;11828;51.508;18.118;2023-05-07T03:09:25;145.00;;;71.05;;
23310;SDS011;11828;51.508;18.118;2023-05-07T03:11:51;157.85;;;74.45;;
23310;SDS011;11828;51.508;18.118;2023-05-07T03:14:18;142.05;;;71.95;;
23310;SDS011;11828;51.508;18.118;2023-05-07T03:16:44;141.70;;;71.55;;
23310;SDS011;11828;51.508;18.118;2023-05-07T03:19:10;140.82;;;72.45;;
23310;SDS011;11828;51.508;18.118;2023-05-07T03:21:36;142.55;;;69.65;;
23310;SDS011;11828;51.508;18.118;2023-05-07T03:24:02;138.93;;;70.82;;
23310;SDS011;11828;51.508;18.118;2023-05-07T03:26:28;140.90;;;71.50;;
23310;SDS011;11828;51.508;18.118;2023-05-07T03:28:55;153.63;;;74.47;;
23310;SDS011;11828;51.508;18.118;2023-05-07T03:31:21;135.18;;;69.97;;
23310;SDS011;11828;51.508;18.118;2023-05-07T03:33:51;143.68;;;71.70;;
23310;SDS011;11828;51.508;18.118;2023-05-07T03:36:19;132.27;;;69.22;;
23310;SDS011;11828;51.508;18.118;2023-05-07T03:38:46;133.80;;;68.97;;
23310;SDS011;11828;51.508;18.118;2023-05-07T03:41:13;137.85;;;71.72;;
23310;SDS011;11828;51.508;18.118;2023-05-07T03:43:39;132.93;;;69.78;;
23310;SDS011;11828;51.508;18.118;2023-05-07T03:46:05;135.40;;;70.80;;
23310;SDS011;11828;51.508;18.118;2023-05-07T03:48:32;139.43;;;71.60;;
23310;SDS011;11828;51.508;18.118;2023-05-07T03:50:58;134.95;;;69.88;;
23310;SDS011;11828;51.508;18.118;2023-05-07T03:53:24;139.35;;;69.80;;
23310;SDS011;11828;51.508;18.118;2023-05-07T03:55:50;136.18;;;68.68;;
23310;SDS011;11828;51.508;18.118;2023-05-07T03:58:17;132.63;;;68.32;;
23310;SDS011;11828;51.508;18.118;2023-05-07T04:00:44;132.48;;;68.05;;
23310;SDS011;11828;51.508;18.118;2023-05-07T04:03:10;133.75;;;67.35;;
23310;SDS011;11828;51.508;18.118;2023-05-07T04:05:36;127.32;;;68.10;;
23310;SDS011;11828;51.508;18.118;2023-05-07T04:08:03;134.52;;;69.03;;
23310;SDS011;11828;51.508;18.118;2023-05-07T04:10:29;138.23;;;69.72;;
23310;SDS011;11828;51.508;18.118;2023-05-07T04:12:56;141.27;;;70.95;;
23310;SDS011;11828;51.508;18.118;2023-05-07T04:15:23;144.23;;;72.47;;
23310;SDS011;11828;51.508;18.118;2023-05-07T04:17:49;149.57;;;73.22;;
23310;SDS011;11828;51.508;18.118;2023-05-07T04:20:15;160.07;;;74.28;;
23310;SDS011;11828;51.508;18.118;2023-05-07T04:22:43;141.10;;;70.72;;
23310;SDS011;11828;51.508;18.118;2023-05-07T04:25:09;145.38;;;72.35;;
23310;SDS011;11828;51.508;18.118;2023-05-07T04:27:35;150.20;;;72.70;;
23310;SDS011;11828;51.508;18.118;2023-05-07T04:30:02;147.18;;;73.32;;
23310;SDS011;11828;51.508;18.118;2023-05-07T04:32:29;149.13;;;73.90;;
23310;SDS011;11828;51.508;18.118;2023-05-07T04:34:56;133.32;;;69.50;;
23310;SDS011;11828;51.508;18.118;2023-05-07T04:37:22;143.65;;;71.55;;
23310;SDS011;11828;51.508;18.118;2023-05-07T04:39:48;145.13;;;73.25;;
23310;SDS011;11828;51.508;18.118;2023-05-07T04:42:17;151.95;;;74.80;;
23310;SDS011;11828;51.508;18.118;2023-05-07T04:44:44;172.60;;;78.35;;
23310;SDS011;11828;51.508;18.118;2023-05-07T04:47:11;161.38;;;75.15;;
23310;SDS011;11828;51.508;18.118;2023-05-07T04:49:40;55.50;;;49.33;;
23310;SDS011;11828;51.508;18.118;2023-05-07T04:52:06;153.73;;;74.50;;
23310;SDS011;11828;51.508;18.118;2023-05-07T04:54:32;156.70;;;74.50;;
23310;SDS011;11828;51.508;18.118;2023-05-07T04:56:58;158.50;;;75.28;;
23310;SDS011;11828;51.508;18.118;2023-05-07T04:59:24;175.32;;;78.43;;
23310;SDS011;11828;51.508;18.118;2023-05-07T05:01:51;153.55;;;73.75;;
23310;SDS011;11828;51.508;18.118;2023-05-07T05:04:17;152.55;;;74.20;;
23310;SDS011;11828;51.508;18.118;2023-05-07T05:06:43;166.75;;;76.32;;
23310;SDS011;11828;51.508;18.118;2023-05-07T05:09:09;166.57;;;76.90;;
23310;SDS011;11828;51.508;18.118;2023-05-07T05:11:36;176.30;;;78.38;;
23310;SDS011;11828;51.508;18.118;2023-05-07T05:14:02;183.23;;;81.28;;
23310;SDS011;11828;51.508;18.118;2023-05-07T05:16:28;179.80;;;76.82;;
23310;SDS011;11828;51.508;18.118;2023-05-07T05:18:54;180.40;;;78.38;;
23310;SDS011;11828;51.508;18.118;2023-05-07T05:21:21;185.77;;;79.57;;
23310;SDS011;11828;51.508;18.118;2023-05-07T05:23:47;177.05;;;76.10;;
23310;SDS011;11828;51.508;18.118;2023-05-07T05:26:13;185.50;;;79.32;;
23310;SDS011;11828;51.508;18.118;2023-05-07T05:28:39;177.68;;;76.72;;
23310;SDS011;11828;51.508;18.118;2023-05-07T05:31:05;176.38;;;77.60;;
23310;SDS011;11828;51.508;18.118;2023-05-07T05:33:31;185.70;;;78.93;;
23310;SDS011;11828;51.508;18.118;2023-05-07T05:35:57;176.32;;;79.70;;
23310;SDS011;11828;51.508;18.118;2023-05-07T05:38:23;76.78;;;56.83;;
23310;SDS011;11828;51.508;18.118;2023-05-07T05:40:51;64.97;;;51.20;;
23310;SDS011;11828;51.508;18.118;2023-05-07T05:43:17;183.65;;;80.28;;
23310;SDS011;11828;51.508;18.118;2023-05-07T05:45:43;188.15;;;78.55;;
23310;SDS011;11828;51.508;18.118;2023-05-07T05:48:09;190.82;;;78.30;;
23310;SDS011;11828;51.508;18.118;2023-05-07T05:50:35;196.07;;;79.70;;
23310;SDS011;11828;51.508;18.118;2023-05-07T05:53:02;194.90;;;79.80;;
23310;SDS011;11828;51.508;18.118;2023-05-07T05:55:28;190.10;;;79.25;;
23310;SDS011;11828;51.508;18.118;2023-05-07T05:57:57;178.52;;;77.65;;
23310;SDS011;11828;51.508;18.118;2023-05-07T06:00:25;193.07;;;80.82;;
23310;SDS011;11828;51.508;18.118;2023-05-07T06:02:51;186.30;;;80.10;;
23310;SDS011;11828;51.508;18.118;2023-05-07T06:05:18;185.27;;;78.22;;
23310;SDS011;11828;51.508;18.118;2023-05-07T06:07:44;184.15;;;77.88;;
23310;SDS011;11828;51.508;18.118;2023-05-07T06:10:10;184.85;;;78.93;;
23310;SDS011;11828;51.508;18.118;2023-05-07T06:12:36;173.20;;;77.18;;
23310;SDS011;11828;51.508;18.118;2023-05-07T06:15:03;173.35;;;75.72;;
23310;SDS011;11828;51.508;18.118;2023-05-07T06:17:29;179.13;;;79.63;;
23310;SDS011;11828;51.508;18.118;2023-05-07T06:19:56;184.80;;;78.03;;
23310;SDS011;11828;51.508;18.118;2023-05-07T06:22:21;192.48;;;81.10;;
23310;SDS011;11828;51.508;18.118;2023-05-07T06:24:48;190.52;;;79.00;;
23310;SDS011;11828;51.508;18.118;2023-05-07T06:27:14;168.98;;;74.13;;
23310;SDS011;11828;51.508;18.118;2023-05-07T06:29:40;172.85;;;77.15;;
23310;SDS011;11828;51.508;18.118;2023-05-07T06:32:07;167.40;;;75.53;;
23310;SDS011;11828;51.508;18.118;2023-05-07T06:34:34;179.35;;;76.53;;
23310;SDS011;11828;51.508;18.118;2023-05-07T06:37:00;169.90;;;77.07;;
23310;SDS011;11828;51.508;18.118;2023-05-07T06:39:26;174.27;;;77.43;;
23310;SDS011;11828;51.508;18.118;2023-05-07T06:41:52;183.50;;;82.03;;
23310;SDS011;11828;51.508;18.118;2023-05-07T06:44:19;188.25;;;81.95;;
23310;SDS011;11828;51.508;18.118;2023-05-07T06:46:45;185.50;;;80.72;;
23310;SDS011;11828;51.508;18.118;2023-05-07T06:49:12;191.07;;;78.68;;
23310;SDS011;11828;51.508;18.118;2023-05-07T06:51:38;181.30;;;78.25;;
23310;SDS011;11828;51.508;18.118;2023-05-07T06:54:05;192.90;;;79.63;;
23310;SDS011;11828;51.508;18.118;2023-05-07T06:56:31;184.52;;;78.93;;
23310;SDS011;11828;51.508;18.118;2023-05-07T06:58:59;204.55;;;82.05;;
23310;SDS011;11828;51.508;18.118;2023-05-07T07:01:26;182.38;;;78.05;;
23310;SDS011;11828;51.508;18.118;2023-05-07T07:03:53;181.13;;;77.35;;
23310;SDS011;11828;51.508;18.118;2023-05-07T07:06:19;180.80;;;77.88;;
23310;SDS011;11828;51.508;18.118;2023-05-07T07:08:45;165.70;;;77.47;;
23310;SDS011;11828;51.508;18.118;2023-05-07T07:11:11;166.90;;;76.28;;
23310;SDS011;11828;51.508;18.118;2023-05-07T07:13:37;154.95;;;73.50;;
23310;SDS011;11828;51.508;18.118;2023-05-07T07:16:05;152.15;;;72.95;;
23310;SDS011;11828;51.508;18.118;2023-05-07T07:18:31;144.40;;;73.07;;
23310;SDS011;11828;51.508;18.118;2023-05-07T07:20:57;136.95;;;70.47;;
23310;SDS011;11828;51.508;18.118;2023-05-07T07:23:24;154.70;;;72.47;;
23310;SDS011;11828;51.508;18.118;2023-05-07T07:25:50;146.40;;;73.20;;
23310;SDS011;11828;51.508;18.118;2023-05-07T07:28:17;164.27;;;78.78;;
23310;SDS011;11828;51.508;18.118;2023-05-07T07:30:43;161.90;;;77.55;;
23310;SDS011;11828;51.508;18.118;2023-05-07T07:33:09;165.88;;;77.75;;
23310;SDS011;11828;51.508;18.118;2023-05-07T07:35:35;162.57;;;78.32;;
23310;SDS011;11828;51.508;18.118;2023-05-07T07:38:01;151.32;;;73.55;;
23310;SDS011;11828;51.508;18.118;2023-05-07T07:40:27;147.13;;;74.18;;
23310;SDS011;11828;51.508;18.118;2023-05-07T07:42:54;137.55;;;72.72;;
23310;SDS011;11828;51.508;18.118;2023-05-07T07:45:21;117.95;;;67.28;;
23310;SDS011;11828;51.508;18.118;2023-05-07T07:47:47;126.18;;;69.75;;
23310;SDS011;11828;51.508;18.118;2023-05-07T07:50:13;136.85;;;71.40;;
23310;SDS011;11828;51.508;18.118;2023-05-07T07:52:40;120.10;;;68.20;;
23310;SDS011;11828;51.508;18.118;2023-05-07T07:55:06;169.65;;;78.47;;
23310;SDS011;11828;51.508;18.118;2023-05-07T07:57:33;155.80;;;75.68;;
23310;SDS011;11828;51.508;18.118;2023-05-07T07:59:59;156.50;;;76.90;;
23310;SDS011;11828;51.508;18.118;2023-05-07T08:02:26;156.50;;;75.55;;
23310;SDS011;11828;51.508;18.118;2023-05-07T08:04:52;177.07;;;78.60;;
23310;SDS011;11828;51.508;18.118;2023-05-07T08:07:18;167.70;;;77.60;;
23310;SDS011;11828;51.508;18.118;2023-05-07T08:09:45;162.98;;;74.20;;
23310;SDS011;11828;51.508;18.118;2023-05-07T08:12:12;154.05;;;75.75;;
23310;SDS011;11828;51.508;18.118;2023-05-07T08:14:38;150.90;;;73.38;;
23310;SDS011;11828;51.508;18.118;2023-05-07T08:17:04;182.07;;;79.53;;
23310;SDS011;11828;51.508;18.118;2023-05-07T08:19:30;186.40;;;78.70;;
23310;SDS011;11828;51.508;18.118;2023-05-07T08:21:57;195.23;;;81.03;;
23310;SDS011;11828;51.508;18.118;2023-05-07T08:24:23;172.95;;;77.10;;
23310;SDS011;11828;51.508;18.118;2023-05-07T08:26:49;172.13;;;77.60;;
23310;SDS011;11828;51.508;18.118;2023-05-07T08:29:15;167.00;;;75.43;;
23310;SDS011;11828;51.508;18.118;2023-05-07T08:31:41;164.25;;;74.07;;
23310;SDS011;11828;51.508;18.118;2023-05-07T08:34:07;180.95;;;76.57;;
23310;SDS011;11828;51.508;18.118;2023-05-07T08:36:34;154.90;;;72.03;;
23310;SDS011;11828;51.508;18.118;2023-05-07T08:39:00;142.40;;;71.90;;
23310;SDS011;11828;51.508;18.118;2023-05-07T08:41:26;163.73;;;76.00;;
23310;SDS011;11828;51.508;18.118;2023-05-07T08:43:53;185.52;;;80.32;;
23310;SDS011;11828;51.508;18.118;2023-05-07T08:46:25;170.95;;;78.03;;
23310;SDS011;11828;51.508;18.118;2023-05-07T08:48:57;170.27;;;77.43;;
23310;SDS011;11828;51.508;18.118;2023-05-07T08:51:24;180.82;;;80.15;;
23310;SDS011;11828;51.508;18.118;2023-05-07T08:53:50;178.40;;;78.82;;
23310;SDS011;11828;51.508;18.118;2023-05-07T08:56:17;179.27;;;77.82;;
23310;SDS011;11828;51.508;18.118;2023-05-07T08:58:45;179.70;;;76.88;;
23310;SDS011;11828;51.508;18.118;2023-05-07T09:01:15;163.40;;;75.72;;
23310;SDS011;11828;51.508;18.118;2023-05-07T09:03:45;148.02;;;72.90;;
23310;SDS011;11828;51.508;18.118;2023-05-07T09:06:12;156.65;;;75.95;;
23310;SDS011;11828;51.508;18.118;2023-05-07T09:08:38;141.23;;;71.45;;
23310;SDS011;11828;51.508;18.118;2023-05-07T09:11:04;137.30;;;72.22;;
23310;SDS011;11828;51.508;18.118;2023-05-07T09:13:30;148.57;;;72.95;;
23310;SDS011;11828;51.508;18.118;2023-05-07T09:15:57;132.23;;;71.47;;
23310;SDS011;11828;51.508;18.118;2023-05-07T09:18:26;151.68;;;74.18;;
23310;SDS011;11828;51.508;18.118;2023-05-07T09:20:52;140.38;;;73.57;;
23310;SDS011;11828;51.508;18.118;2023-05-07T09:23:18;157.77;;;76.47;;
23310;SDS011;11828;51.508;18.118;2023-05-07T09:25:46;135.52;;;71.93;;
23310;SDS011;11828;51.508;18.118;2023-05-07T09:28:11;128.38;;;70.40;;
23310;SDS011;11828;51.508;18.118;2023-05-07T09:30:38;134.55;;;70.63;;
23310;SDS011;11828;51.508;18.118;2023-05-07T09:33:04;133.35;;;72.38;;
23310;SDS011;11828;51.508;18.118;2023-05-07T09:35:30;160.68;;;76.30;;
23310;SDS011;11828;51.508;18.118;2023-05-07T09:37:57;128.88;;;70.57;;
23310;SDS011;11828;51.508;18.118;2023-05-07T09:40:26;135.38;;;71.57;;
23310;SDS011;11828;51.508;18.118;2023-05-07T09:42:54;146.75;;;72.68;;
23310;SDS011;11828;51.508;18.118;2023-05-07T09:45:21;148.35;;;72.85;;
23310;SDS011;11828;51.508;18.118;2023-05-07T09:47:53;139.27;;;73.05;;
23310;SDS011;11828;51.508;18.118;2023-05-07T09:50:26;145.63;;;74.72;;
23310;SDS011;11828;51.508;18.118;2023-05-07T09:52:55;143.60;;;73.40;;
23310;SDS011;11828;51.508;18.118;2023-05-07T09:55:22;173.27;;;79.20;;
23310;SDS011;11828;51.508;18.118;2023-05-07T09:57:49;164.88;;;78.00;;
23310;SDS011;11828;51.508;18.118;2023-05-07T10:00:21;136.85;;;72.28;;
23310;SDS011;11828;51.508;18.118;2023-05-07T10:02:48;150.48;;;74.95;;
23310;SDS011;11828;51.508;18.118;2023-05-07T10:05:17;166.30;;;78.70;;
23310;SDS011;11828;51.508;18.118;2023-05-07T10:07:48;167.93;;;79.75;;
23310;SDS011;11828;51.508;18.118;2023-05-07T10:10:15;159.38;;;77.63;;
23310;SDS011;11828;51.508;18.118;2023-05-07T10:12:43;147.73;;;73.75;;
23310;SDS011;11828;51.508;18.118;2023-05-07T10:15:11;159.05;;;81.13;;
23310;SDS011;11828;51.508;18.118;2023-05-07T10:17:38;158.25;;;77.75;;
23310;SDS011;11828;51.508;18.118;2023-05-07T10:20:05;171.70;;;79.30;;
23310;SDS011;11828;51.508;18.118;2023-05-07T10:22:43;183.23;;;82.43;;
23310;SDS011;11828;51.508;18.118;2023-05-07T10:25:16;154.30;;;79.18;;
23310;SDS011;11828;51.508;18.118;2023-05-07T10:27:46;153.77;;;78.28;;
23310;SDS011;11828;51.508;18.118;2023-05-07T10:33:18;128.40;;;69.95;;
23310;SDS011;11828;51.508;18.118;2023-05-07T10:35:48;112.82;;;64.32;;
23310;SDS011;11828;51.508;18.118;2023-05-07T10:38:15;94.18;;;59.38;;
23310;SDS011;11828;51.508;18.118;2023-05-07T10:40:41;80.28;;;56.53;;
23310;SDS011;11828;51.508;18.118;2023-05-07T10:43:08;73.55;;;56.25;;
23310;SDS011;11828;51.508;18.118;2023-05-07T10:45:34;100.78;;;62.58;;
23310;SDS011;11828;51.508;18.118;2023-05-07T10:50:41;102.57;;;63.17;;
23310;SDS011;11828;51.508;18.118;2023-05-07T11:00:55;118.78;;;66.78;;
23310;SDS011;11828;51.508;18.118;2023-05-07T11:03:26;119.85;;;72.72;;
23310;SDS011;11828;51.508;18.118;2023-05-07T11:06:09;138.65;;;73.15;;
23310;SDS011;11828;51.508;18.118;2023-05-07T11:08:56;124.55;;;70.47;;
23310;SDS011;11828;51.508;18.118;2023-05-07T11:14:13;130.77;;;70.38;;
23310;SDS011;11828;51.508;18.118;2023-05-07T11:16:41;157.13;;;76.60;;
23310;SDS011;11828;51.508;18.118;2023-05-07T11:19:08;155.25;;;77.60;;
23310;SDS011;11828;51.508;18.118;2023-05-07T11:21:38;161.85;;;79.25;;
23310;SDS011;11828;51.508;18.118;2023-05-07T11:24:06;150.68;;;75.03;;
23310;SDS011;11828;51.508;18.118;2023-05-07T11:29:15;26.70;;;19.13;;
23310;SDS011;11828;51.508;18.118;2023-05-07T11:31:53;135.32;;;71.85;;
23310;SDS011;11828;51.508;18.118;2023-05-07T11:34:24;135.45;;;71.75;;
23310;SDS011;11828;51.508;18.118;2023-05-07T11:36:51;124.63;;;68.90;;
23310;SDS011;11828;51.508;18.118;2023-05-07T11:41:54;101.30;;;66.72;;
23310;SDS011;11828;51.508;18.118;2023-05-07T11:44:21;114.70;;;68.30;;
23310;SDS011;11828;51.508;18.118;2023-05-07T11:46:47;110.32;;;67.47;;
23310;SDS011;11828;51.508;18.118;2023-05-07T11:49:14;111.47;;;65.65;;
23310;SDS011;11828;51.508;18.118;2023-05-07T11:51:41;109.20;;;66.70;;
23310;SDS011;11828;51.508;18.118;2023-05-07T11:54:08;106.07;;;66.93;;
23310;SDS011;11828;51.508;18.118;2023-05-07T11:56:37;114.65;;;69.18;;
23310;SDS011;11828;51.508;18.118;2023-05-07T11:59:04;126.32;;;72.47;;
23310;SDS011;11828;51.508;18.118;2023-05-07T12:01:31;136.43;;;73.63;;
23310;SDS011;11828;51.508;18.118;2023-05-07T12:03:57;127.85;;;72.53;;
23310;SDS011;11828;51.508;18.118;2023-05-07T12:06:23;140.30;;;74.15;;
23310;SDS011;11828;51.508;18.118;2023-05-07T12:08:49;145.23;;;76.30;;
23310;SDS011;11828;51.508;18.118;2023-05-07T12:11:16;147.25;;;75.18;;
23310;SDS011;11828;51.508;18.118;2023-05-07T12:13:48;147.75;;;76.25;;
23310;SDS011;11828;51.508;18.118;2023-05-07T12:16:14;160.68;;;76.35;;
23310;SDS011;11828;51.508;18.118;2023-05-07T12:18:41;153.20;;;74.75;;
23310;SDS011;11828;51.508;18.118;2023-05-07T12:21:07;145.63;;;73.30;;
23310;SDS011;11828;51.508;18.118;2023-05-07T12:23:35;143.93;;;72.15;;
23310;SDS011;11828;51.508;18.118;2023-05-07T12:26:02;131.45;;;71.13;;
23310;SDS011;11828;51.508;18.118;2023-05-07T12:28:29;126.47;;;69.63;;
23310;SDS011;11828;51.508;18.118;2023-05-07T12:30:57;115.15;;;67.38;;
23310;SDS011;11828;51.508;18.118;2023-05-07T12:33:24;98.57;;;64.15;;
23310;SDS011;11828;51.508;18.118;2023-05-07T12:35:53;91.47;;;62.35;;
23310;SDS011;11828;51.508;18.118;2023-05-07T12:38:21;90.30;;;62.53;;
23310;SDS011;11828;51.508;18.118;2023-05-07T12:40:48;78.20;;;58.13;;
23310;SDS011;11828;51.508;18.118;2023-05-07T12:43:20;68.25;;;54.50;;
23310;SDS011;11828;51.508;18.118;2023-05-07T12:45:50;66.30;;;52.20;;
23310;SDS011;11828;51.508;18.118;2023-05-07T12:48:19;77.22;;;57.15;;
23310;SDS011;11828;51.508;18.118;2023-05-07T12:50:50;100.38;;;64.03;;
23310;SDS011;11828;51.508;18.118;2023-05-07T12:53:20;94.30;;;63.25;;
23310;SDS011;11828;51.508;18.118;2023-05-07T12:55:49;85.78;;;59.97;;
23310;SDS011;11828;51.508;18.118;2023-05-07T12:58:23;74.65;;;56.75;;
23310;SDS011;11828;51.508;18.118;2023-05-07T13:00:56;87.32;;;64.30;;
23310;SDS011;11828;51.508;18.118;2023-05-07T13:03:27;105.93;;;77.72;;
23310;SDS011;11828;51.508;18.118;2023-05-07T13:06:02;98.80;;;68.05;;
23310;SDS011;11828;51.508;18.118;2023-05-07T13:08:38;89.95;;;62.83;;
23310;SDS011;11828;51.508;18.118;2023-05-07T13:11:08;82.22;;;58.05;;
23310;SDS011;11828;51.508;18.118;2023-05-07T13:13:37;84.57;;;59.00;;
23310;SDS011;11828;51.508;18.118;2023-05-07T13:16:08;77.70;;;55.58;;
23310;SDS011;11828;51.508;18.118;2023-05-07T13:18:37;76.47;;;58.03;;
23310;SDS011;11828;51.508;18.118;2023-05-07T13:21:05;66.50;;;54.55;;
23310;SDS011;11828;51.508;18.118;2023-05-07T13:23:31;82.93;;;60.20;;
23310;SDS011;11828;51.508;18.118;2023-05-07T13:25:58;74.45;;;57.40;;
23310;SDS011;11828;51.508;18.118;2023-05-07T13:28:25;69.25;;;56.30;;
23310;SDS011;11828;51.508;18.118;2023-05-07T13:30:51;68.75;;;54.95;;
23310;SDS011;11828;51.508;18.118;2023-05-07T13:33:18;68.03;;;55.10;;
23310;SDS011;11828;51.508;18.118;2023-05-07T13:35:44;66.38;;;54.05;;
23310;SDS011;11828;51.508;18.118;2023-05-07T13:38:11;91.97;;;64.70;;
23310;SDS011;11828;51.508;18.118;2023-05-07T13:40:37;96.53;;;64.70;;
23310;SDS011;11828;51.508;18.118;2023-05-07T13:43:05;103.32;;;65.63;;
23310;SDS011;11828;51.508;18.118;2023-05-07T13:45:31;90.53;;;62.58;;
23310;SDS011;11828;51.508;18.118;2023-05-07T13:47:57;91.43;;;63.67;;
23310;SDS011;11828;51.508;18.118;2023-05-07T13:50:23;84.47;;;61.42;;
23310;SDS011;11828;51.508;18.118;2023-05-07T13:52:52;85.57;;;62.33;;
23310;SDS011;11828;51.508;18.118;2023-05-07T13:55:18;98.43;;;63.78;;
23310;SDS011;11828;51.508;18.118;2023-05-07T13:57:45;103.28;;;66.97;;
23310;SDS011;11828;51.508;18.118;2023-05-07T14:00:12;105.85;;;66.50;;
23310;SDS011;11828;51.508;18.118;2023-05-07T14:02:40;116.82;;;70.95;;
23310;SDS011;11828;51.508;18.118;2023-05-07T14:05:07;111.57;;;67.03;;
23310;SDS011;11828;51.508;18.118;2023-05-07T14:07:34;109.93;;;66.68;;
23310;SDS011;11828;51.508;18.118;2023-05-07T14:10:01;109.03;;;67.07;;
23310;SDS011;11828;51.508;18.118;2023-05-07T14:12:27;105.25;;;67.57;;
23310;SDS011;11828;51.508;18.118;2023-05-07T14:14:53;106.40;;;66.00;;
23310;SDS011;11828;51.508;18.118;2023-05-07T14:17:20;112.63;;;66.97;;
23310;SDS011;11828;51.508;18.118;2023-05-07T14:19:48;101.95;;;66.13;;